sensor_id;sensor_type;location;lat;lon;timestamp;pressure;altitude;pressure_sealevel;temperature;humidity
29197;BME280;62796;42.654;23.316;2023-02-20T00:01:21;94863.88;;;12.61;42.11
29197;BME280;62796;42.654;23.316;2023-02-20T00:03:46;94859.56;;;12.60;42.35
29197;BME280;62796;42.654;23.316;2023-02-20T00:06:12;94859.56;;;12.60;42.36
29197;BME280;62796;42.654;23.316;2023-02-20T00:08:37;94866.75;;;12.47;42.68
29197;BME280;62796;42.654;23.316;2023-02-20T00:11:03;94864.75;;;12.47;42.76
29197;BME280;62796;42.654;23.316;2023-02-20T00:13:28;94852.09;;;12.46;42.66
29197;BME280;62796;42.654;23.316;2023-02-20T00:15:54;94853.78;;;12.38;43.15
29197;BME280;62796;42.654;23.316;2023-02-20T00:18:19;94858.28;;;11.90;44.83
29197;BME280;62796;42.654;23.316;2023-02-20T00:20:45;94847.75;;;11.94;44.47
29197;BME280;62796;42.654;23.316;2023-02-20T00:23:10;94865.50;;;12.02;44.43
29197;BME280;62796;42.654;23.316;2023-02-20T00:25:36;94866.34;;;12.08;44.66
29197;BME280;62796;42.654;23.316;2023-02-20T00:28:02;94854.47;;;12.07;44.65
29197;BME280;62796;42.654;23.316;2023-02-20T00:30:27;94863.56;;;12.08;44.23
29197;BME280;62796;42.654;23.316;2023-02-20T00:32:54;94862.19;;;11.78;45.29
29197;BME280;62796;42.654;23.316;2023-02-20T00:35:21;94859.81;;;11.91;45.21
29197;BME280;62796;42.654;23.316;2023-02-20T00:37:47;94855.91;;;11.62;45.94
29197;BME280;62796;42.654;23.316;2023-02-20T00:40:14;94852.66;;;11.64;45.97
29197;BME280;62796;42.654;23.316;2023-02-20T00:42:39;94845.56;;;11.43;46.40
29197;BME280;62796;42.654;23.316;2023-02-20T00:45:06;94841.34;;;11.68;45.56
29197;BME280;62796;42.654;23.316;2023-02-20T00:47:32;94851.41;;;11.30;46.62
29197;BME280;62796;42.654;23.316;2023-02-20T00:49:57;94850.34;;;11.62;46.01
29197;BME280;62796;42.654;23.316;2023-02-20T00:52:23;94855.13;;;11.77;45.25
29197;BME280;62796;42.654;23.316;2023-02-20T00:54:48;94868.28;;;11.82;45.62
29197;BME280;62796;42.654;23.316;2023-02-20T00:57:14;94873.56;;;11.80;45.25
29197;BME280;62796;42.654;23.316;2023-02-20T00:59:39;94861.91;;;11.76;45.43
29197;BME280;62796;42.654;23.316;2023-02-20T01:02:05;94868.69;;;11.75;45.12
29197;BME280;62796;42.654;23.316;2023-02-20T01:04:31;94876.88;;;11.84;44.87
29197;BME280;62796;42.654;23.316;2023-02-20T01:06:56;94879.03;;;11.74;44.89
29197;BME280;62796;42.654;23.316;2023-02-20T01:09:21;94894.50;;;11.81;44.84
29197;BME280;62796;42.654;23.316;2023-02-20T01:11:47;94898.69;;;11.71;45.18
29197;BME280;62796;42.654;23.316;2023-02-20T01:14:13;94894.53;;;11.66;45.72
29197;BME280;62796;42.654;23.316;2023-02-20T01:16:46;94899.31;;;11.65;45.77
29197;BME280;62796;42.654;23.316;2023-02-20T01:19:13;94898.34;;;11.68;45.59
29197;BME280;62796;42.654;23.316;2023-02-20T01:21:38;94899.50;;;11.62;45.74
29197;BME280;62796;42.654;23.316;2023-02-20T01:24:04;94900.00;;;11.60;46.12
29197;BME280;62796;42.654;23.316;2023-02-20T01:26:29;94903.06;;;11.62;46.10
29197;BME280;62796;42.654;23.316;2023-02-20T01:28:55;94895.69;;;11.59;46.29
29197;BME280;62796;42.654;23.316;2023-02-20T01:31:20;94906.34;;;11.61;46.42
29197;BME280;62796;42.654;23.316;2023-02-20T01:33:46;94907.22;;;11.52;46.83
29197;BME280;62796;42.654;23.316;2023-02-20T01:36:11;94905.84;;;11.62;46.67
29197;BME280;62796;42.654;23.316;2023-02-20T01:38:39;94913.50;;;11.68;46.73
29197;BME280;62796;42.654;23.316;2023-02-20T01:41:09;94919.50;;;11.66;46.41
29197;BME280;62796;42.654;23.316;2023-02-20T01:43:35;94918.38;;;11.73;46.68
29197;BME280;62796;42.654;23.316;2023-02-20T01:48:48;94926.69;;;11.73;46.61
29197;BME280;62796;42.654;23.316;2023-02-20T01:51:15;94936.06;;;11.75;46.77
29197;BME280;62796;42.654;23.316;2023-02-20T01:53:40;94924.19;;;11.75;46.99
29197;BME280;62796;42.654;23.316;2023-02-20T01:56:07;94920.97;;;11.61;47.01
29197;BME280;62796;42.654;23.316;2023-02-20T01:58:43;94932.59;;;11.65;47.61
29197;BME280;62796;42.654;23.316;2023-02-20T02:01:10;94943.72;;;11.65;47.66
29197;BME280;62796;42.654;23.316;2023-02-20T02:03:39;94937.44;;;11.50;47.86
29197;BME280;62796;42.654;23.316;2023-02-20T02:06:07;94954.28;;;11.47;48.29
29197;BME280;62796;42.654;23.316;2023-02-20T02:08:35;94949.81;;;11.20;48.87
29197;BME280;62796;42.654;23.316;2023-02-20T02:11:03;94946.31;;;11.05;49.66
29197;BME280;62796;42.654;23.316;2023-02-20T02:13:33;94951.84;;;11.05;48.96
29197;BME280;62796;42.654;23.316;2023-02-20T02:24:39;94947.56;;;10.89;48.30
29197;BME280;62796;42.654;23.316;2023-02-20T02:33:17;94946.75;;;10.60;48.92
29197;BME280;62796;42.654;23.316;2023-02-20T02:39:12;94963.75;;;10.67;48.21
29197;BME280;62796;42.654;23.316;2023-02-20T02:47:34;94965.75;;;10.67;47.75
29197;BME280;62796;42.654;23.316;2023-02-20T02:50:16;94957.75;;;10.54;48.02
29197;BME280;62796;42.654;23.316;2023-02-20T02:52:43;94967.34;;;10.44;48.23
29197;BME280;62796;42.654;23.316;2023-02-20T02:55:24;94960.69;;;10.50;47.96
29197;BME280;62796;42.654;23.316;2023-02-20T02:57:50;94966.28;;;10.27;48.48
29197;BME280;62796;42.654;23.316;2023-02-20T03:01:00;94963.22;;;10.39;48.38
29197;BME280;62796;42.654;23.316;2023-02-20T03:03:22;94962.09;;;10.46;48.03
29197;BME280;62796;42.654;23.316;2023-02-20T03:05:50;94965.34;;;10.44;48.14
29197;BME280;62796;42.654;23.316;2023-02-20T03:10:58;94957.25;;;10.17;48.43
29197;BME280;62796;42.654;23.316;2023-02-20T03:13:27;94958.59;;;10.22;48.35
29197;BME280;62796;42.654;23.316;2023-02-20T03:16:15;94979.06;;;10.24;48.15
29197;BME280;62796;42.654;23.316;2023-02-20T03:18:44;94986.41;;;10.27;48.33
29197;BME280;62796;42.654;23.316;2023-02-20T03:21:16;94984.59;;;10.24;48.14
29197;BME280;62796;42.654;23.316;2023-02-20T03:23:45;94985.94;;;10.29;48.29
29197;BME280;62796;42.654;23.316;2023-02-20T03:26:17;94989.34;;;10.24;48.21
29197;BME280;62796;42.654;23.316;2023-02-20T03:28:58;94989.53;;;10.20;48.36
29197;BME280;62796;42.654;23.316;2023-02-20T03:31:42;95011.06;;;10.16;48.35
29197;BME280;62796;42.654;23.316;2023-02-20T03:34:19;95025.81;;;10.22;48.33
29197;BME280;62796;42.654;23.316;2023-02-20T03:37:25;95035.00;;;10.28;48.38
29197;BME280;62796;42.654;23.316;2023-02-20T03:40:12;95034.94;;;10.37;48.11
29197;BME280;62796;42.654;23.316;2023-02-20T03:43:00;95020.25;;;10.46;47.80
29197;BME280;62796;42.654;23.316;2023-02-20T03:45:47;95018.22;;;10.32;47.59
29197;BME280;62796;42.654;23.316;2023-02-20T03:48:31;95022.03;;;10.34;47.20
29197;BME280;62796;42.654;23.316;2023-02-20T03:50:59;95016.56;;;10.25;47.55
29197;BME280;62796;42.654;23.316;2023-02-20T03:53:25;95016.22;;;10.32;47.44
29197;BME280;62796;42.654;23.316;2023-02-20T03:55:51;95025.09;;;10.36;47.29
29197;BME280;62796;42.654;23.316;2023-02-20T03:58:21;95037.41;;;10.35;47.39
29197;BME280;62796;42.654;23.316;2023-02-20T04:00:50;95047.56;;;10.38;47.01
29197;BME280;62796;42.654;23.316;2023-02-20T04:03:20;95049.16;;;10.30;47.06
29197;BME280;62796;42.654;23.316;2023-02-20T04:05:49;95054.81;;;10.36;47.13
29197;BME280;62796;42.654;23.316;2023-02-20T04:08:21;95045.50;;;10.24;46.72
29197;BME280;62796;42.654;23.316;2023-02-20T04:10:55;95046.25;;;9.92;47.52
29197;BME280;62796;42.654;23.316;2023-02-20T04:13:23;95029.75;;;9.97;47.58
29197;BME280;62796;42.654;23.316;2023-02-20T04:15:51;95045.69;;;10.12;47.40
29197;BME280;62796;42.654;23.316;2023-02-20T04:18:19;95041.34;;;10.20;47.10
29197;BME280;62796;42.654;23.316;2023-02-20T04:20:47;95036.59;;;10.20;46.71
29197;BME280;62796;42.654;23.316;2023-02-20T04:23:19;95029.81;;;10.21;46.89
29197;BME280;62796;42.654;23.316;2023-02-20T04:26:03;95029.13;;;10.02;47.10
29197;BME280;62796;42.654;23.316;2023-02-20T04:28:29;95050.78;;;10.13;47.03
29197;BME280;62796;42.654;23.316;2023-02-20T04:30:55;95054.44;;;10.19;47.23
29197;BME280;62796;42.654;23.316;2023-02-20T04:33:21;95055.09;;;10.05;48.01
29197;BME280;62796;42.654;23.316;2023-02-20T04:35:47;95047.69;;;10.11;47.91
29197;BME280;62796;42.654;23.316;2023-02-20T04:38:12;95046.78;;;10.05;48.01
29197;BME280;62796;42.654;23.316;2023-02-20T04:40:38;95035.16;;;9.92;47.88
29197;BME280;62796;42.654;23.316;2023-02-20T04:43:03;95034.50;;;10.06;47.71
29197;BME280;62796;42.654;23.316;2023-02-20T04:45:29;95030.47;;;10.07;47.68
29197;BME280;62796;42.654;23.316;2023-02-20T04:47:54;95014.16;;;9.85;47.16
29197;BME280;62796;42.654;23.316;2023-02-20T04:50:26;95043.09;;;10.08;46.93
29197;BME280;62796;42.654;23.316;2023-02-20T04:52:52;95032.13;;;9.90;47.00
29197;BME280;62796;42.654;23.316;2023-02-20T04:55:18;95048.88;;;9.86;46.59
29197;BME280;62796;42.654;23.316;2023-02-20T04:57:45;95038.59;;;9.87;46.42
29197;BME280;62796;42.654;23.316;2023-02-20T05:00:11;95055.19;;;9.87;46.15
29197;BME280;62796;42.654;23.316;2023-02-20T05:02:37;95055.22;;;9.78;45.67
29197;BME280;62796;42.654;23.316;2023-02-20T05:05:04;95062.66;;;9.63;45.89
29197;BME280;62796;42.654;23.316;2023-02-20T05:07:31;95071.44;;;9.61;45.94
29197;BME280;62796;42.654;23.316;2023-02-20T05:09:56;95075.38;;;9.27;46.27
29197;BME280;62796;42.654;23.316;2023-02-20T05:12:22;95075.47;;;9.42;45.99
29197;BME280;62796;42.654;23.316;2023-02-20T05:14:47;95077.03;;;9.34;45.87
29197;BME280;62796;42.654;23.316;2023-02-20T05:17:12;95088.09;;;9.43;45.60
29197;BME280;62796;42.654;23.316;2023-02-20T05:19:38;95092.88;;;9.24;45.56
29197;BME280;62796;42.654;23.316;2023-02-20T05:22:10;95085.50;;;9.30;45.59
29197;BME280;62796;42.654;23.316;2023-02-20T05:24:47;95099.28;;;9.39;45.18
29197;BME280;62796;42.654;23.316;2023-02-20T05:27:15;95097.44;;;9.45;44.93
29197;BME280;62796;42.654;23.316;2023-02-20T05:29:49;95097.44;;;9.45;45.36
29197;BME280;62796;42.654;23.316;2023-02-20T05:32:16;95104.81;;;9.49;45.16
29197;BME280;62796;42.654;23.316;2023-02-20T05:34:45;95109.69;;;9.54;45.15
29197;BME280;62796;42.654;23.316;2023-02-20T05:37:11;95108.94;;;9.53;45.48
29197;BME280;62796;42.654;23.316;2023-02-20T05:39:37;95104.50;;;9.47;45.98
29197;BME280;62796;42.654;23.316;2023-02-20T05:42:04;95116.16;;;9.51;45.95
29197;BME280;62796;42.654;23.316;2023-02-20T05:44:30;95129.53;;;9.61;45.90
29197;BME280;62796;42.654;23.316;2023-02-20T05:46:55;95122.31;;;9.55;46.05
29197;BME280;62796;42.654;23.316;2023-02-20T05:49:21;95130.59;;;9.64;45.99
29197;BME280;62796;42.654;23.316;2023-02-20T05:51:47;95117.97;;;9.63;46.30
29197;BME280;62796;42.654;23.316;2023-02-20T05:54:15;95107.06;;;9.59;46.53
29197;BME280;62796;42.654;23.316;2023-02-20T05:56:41;95111.50;;;9.66;46.36
29197;BME280;62796;42.654;23.316;2023-02-20T05:59:07;95111.47;;;9.75;46.24
29197;BME280;62796;42.654;23.316;2023-02-20T06:01:32;95108.69;;;9.84;45.88
29197;BME280;62796;42.654;23.316;2023-02-20T06:03:58;95101.09;;;10.02;45.13
29197;BME280;62796;42.654;23.316;2023-02-20T06:08:58;95121.19;;;10.12;42.91
29197;BME280;62796;42.654;23.316;2023-02-20T06:11:24;95132.94;;;10.31;42.18
29197;BME280;62796;42.654;23.316;2023-02-20T06:13:49;95136.56;;;10.13;42.06
29197;BME280;62796;42.654;23.316;2023-02-20T06:16:24;95136.44;;;10.40;41.21
29197;BME280;62796;42.654;23.316;2023-02-20T06:18:50;95138.31;;;10.34;41.20
29197;BME280;62796;42.654;23.316;2023-02-20T06:21:16;95133.63;;;10.49;41.91
29197;BME280;62796;42.654;23.316;2023-02-20T06:23:43;95124.25;;;10.71;41.23
29197;BME280;62796;42.654;23.316;2023-02-20T06:26:12;95126.91;;;10.89;41.11
29197;BME280;62796;42.654;23.316;2023-02-20T06:28:38;95128.28;;;11.08;40.51
29197;BME280;62796;42.654;23.316;2023-02-20T06:31:04;95130.63;;;10.62;41.21
29197;BME280;62796;42.654;23.316;2023-02-20T06:33:30;95122.22;;;10.57;40.47
29197;BME280;62796;42.654;23.316;2023-02-20T06:35:55;95141.47;;;10.98;40.88
29197;BME280;62796;42.654;23.316;2023-02-20T06:38:21;95143.44;;;11.22;40.13
29197;BME280;62796;42.654;23.316;2023-02-20T06:40:47;95140.88;;;11.47;39.63
29197;BME280;62796;42.654;23.316;2023-02-20T06:43:12;95144.13;;;11.31;39.64
29197;BME280;62796;42.654;23.316;2023-02-20T06:45:38;95144.41;;;11.33;39.26
29197;BME280;62796;42.654;23.316;2023-02-20T06:48:03;95152.81;;;11.39;39.61
29197;BME280;62796;42.654;23.316;2023-02-20T06:50:29;95152.66;;;11.57;38.75
29197;BME280;62796;42.654;23.316;2023-02-20T06:52:54;95160.53;;;11.58;38.93
29197;BME280;62796;42.654;23.316;2023-02-20T06:55:20;95163.38;;;11.49;39.40
29197;BME280;62796;42.654;23.316;2023-02-20T06:57:45;95168.16;;;11.49;39.42
29197;BME280;62796;42.654;23.316;2023-02-20T07:00:11;95158.19;;;11.42;38.69
29197;BME280;62796;42.654;23.316;2023-02-20T07:02:37;95176.16;;;11.32;39.14
29197;BME280;62796;42.654;23.316;2023-02-20T07:05:04;95174.56;;;11.02;39.71
29197;BME280;62796;42.654;23.316;2023-02-20T07:07:30;95180.31;;;11.13;39.87
29197;BME280;62796;42.654;23.316;2023-02-20T07:09:55;95159.94;;;11.54;38.30
29197;BME280;62796;42.654;23.316;2023-02-20T07:12:21;95167.25;;;11.81;36.89
29197;BME280;62796;42.654;23.316;2023-02-20T07:14:46;95170.03;;;11.81;37.88
29197;BME280;62796;42.654;23.316;2023-02-20T07:17:14;95175.66;;;12.16;37.00
29197;BME280;62796;42.654;23.316;2023-02-20T07:19:39;95163.19;;;12.26;35.80
29197;BME280;62796;42.654;23.316;2023-02-20T07:22:05;95166.81;;;12.47;34.89
29197;BME280;62796;42.654;23.316;2023-02-20T07:24:30;95176.34;;;12.60;33.92
29197;BME280;62796;42.654;23.316;2023-02-20T07:26:55;95173.13;;;12.47;34.03
29197;BME280;62796;42.654;23.316;2023-02-20T07:29:21;95168.03;;;12.46;33.81
29197;BME280;62796;42.654;23.316;2023-02-20T07:31:46;95175.25;;;12.38;33.89
29197;BME280;62796;42.654;23.316;2023-02-20T07:34:12;95178.50;;;12.21;33.64
29197;BME280;62796;42.654;23.316;2023-02-20T07:36:37;95198.94;;;12.04;34.01
29197;BME280;62796;42.654;23.316;2023-02-20T07:39:03;95188.09;;;12.35;33.30
29197;BME280;62796;42.654;23.316;2023-02-20T07:41:30;95178.41;;;12.31;33.18
29197;BME280;62796;42.654;23.316;2023-02-20T07:43:57;95192.91;;;12.20;33.19
29197;BME280;62796;42.654;23.316;2023-02-20T07:46:22;95197.47;;;12.38;33.00
29197;BME280;62796;42.654;23.316;2023-02-20T07:48:48;95206.31;;;12.36;33.06
29197;BME280;62796;42.654;23.316;2023-02-20T07:51:14;95194.66;;;12.52;32.30
29197;BME280;62796;42.654;23.316;2023-02-20T07:53:39;95193.66;;;12.35;31.84
29197;BME280;62796;42.654;23.316;2023-02-20T07:56:05;95187.88;;;12.53;31.45
29197;BME280;62796;42.654;23.316;2023-02-20T07:58:31;95199.19;;;12.50;31.29
29197;BME280;62796;42.654;23.316;2023-02-20T08:00:56;95212.03;;;12.47;31.49
29197;BME280;62796;42.654;23.316;2023-02-20T08:03:21;95210.16;;;12.73;31.11
29197;BME280;62796;42.654;23.316;2023-02-20T08:05:47;95208.44;;;13.11;30.74
29197;BME280;62796;42.654;23.316;2023-02-20T08:08:12;95205.63;;;13.51;30.07
29197;BME280;62796;42.654;23.316;2023-02-20T08:10:38;95198.78;;;13.72;29.62
29197;BME280;62796;42.654;23.316;2023-02-20T08:13:03;95189.78;;;13.83;28.17
29197;BME280;62796;42.654;23.316;2023-02-20T08:15:29;95200.47;;;13.90;28.81
29197;BME280;62796;42.654;23.316;2023-02-20T08:17:54;95170.34;;;13.89;28.56
29197;BME280;62796;42.654;23.316;2023-02-20T08:20:20;95207.13;;;14.24;28.44
29197;BME280;62796;42.654;23.316;2023-02-20T08:22:47;95190.72;;;14.57;27.70
29197;BME280;62796;42.654;23.316;2023-02-20T08:25:14;95215.75;;;14.26;28.10
29197;BME280;62796;42.654;23.316;2023-02-20T08:27:45;95203.06;;;14.25;28.08
29197;BME280;62796;42.654;23.316;2023-02-20T08:30:21;95196.66;;;14.39;27.86
29197;BME280;62796;42.654;23.316;2023-02-20T08:32:49;95201.75;;;14.46;27.69
29197;BME280;62796;42.654;23.316;2023-02-20T08:35:15;95214.34;;;14.67;27.93
29197;BME280;62796;42.654;23.316;2023-02-20T08:37:41;95201.75;;;14.46;28.34
29197;BME280;62796;42.654;23.316;2023-02-20T08:40:07;95214.63;;;14.69;28.18
29197;BME280;62796;42.654;23.316;2023-02-20T08:42:33;95193.97;;;13.99;28.59
29197;BME280;62796;42.654;23.316;2023-02-20T08:45:00;95210.84;;;14.41;28.33
29197;BME280;62796;42.654;23.316;2023-02-20T08:47:25;95205.31;;;14.78;27.58
29197;BME280;62796;42.654;23.316;2023-02-20T08:49:50;95202.59;;;14.89;27.51
29197;BME280;62796;42.654;23.316;2023-02-20T08:52:17;95189.84;;;15.25;26.96
29197;BME280;62796;42.654;23.316;2023-02-20T08:54:47;95230.16;;;15.24;26.92
29197;BME280;62796;42.654;23.316;2023-02-20T08:57:13;95213.00;;;15.42;26.41
29197;BME280;62796;42.654;23.316;2023-02-20T08:59:39;95200.81;;;15.34;26.20
29197;BME280;62796;42.654;23.316;2023-02-20T09:02:05;95208.41;;;15.33;26.20
29197;BME280;62796;42.654;23.316;2023-02-20T09:04:31;95214.84;;;15.50;26.08
29197;BME280;62796;42.654;23.316;2023-02-20T09:06:56;95207.56;;;15.75;25.94
29197;BME280;62796;42.654;23.316;2023-02-20T09:09:22;95209.13;;;15.76;25.77
29197;BME280;62796;42.654;23.316;2023-02-20T09:11:47;95214.16;;;15.67;25.60
29197;BME280;62796;42.654;23.316;2023-02-20T09:14:13;95217.50;;;15.82;25.57
29197;BME280;62796;42.654;23.316;2023-02-20T09:16:38;95184.44;;;15.05;26.62
29197;BME280;62796;42.654;23.316;2023-02-20T09:19:07;95198.25;;;15.36;26.80
29197;BME280;62796;42.654;23.316;2023-02-20T09:21:33;95206.78;;;15.64;26.26
29197;BME280;62796;42.654;23.316;2023-02-20T09:23:58;95210.50;;;15.44;26.39
29197;BME280;62796;42.654;23.316;2023-02-20T09:26:24;95195.75;;;15.38;26.58
29197;BME280;62796;42.654;23.316;2023-02-20T09:28:49;95206.03;;;15.74;26.33
29197;BME280;62796;42.654;23.316;2023-02-20T09:31:15;95190.84;;;15.86;26.17
29197;BME280;62796;42.654;23.316;2023-02-20T09:33:44;95209.63;;;15.80;26.32
29197;BME280;62796;42.654;23.316;2023-02-20T09:36:10;95193.63;;;15.86;26.17
29197;BME280;62796;42.654;23.316;2023-02-20T09:38:35;95186.06;;;16.03;26.20
29197;BME280;62796;42.654;23.316;2023-02-20T09:41:01;95202.13;;;16.42;25.86
29197;BME280;62796;42.654;23.316;2023-02-20T09:48:54;95196.97;;;15.90;26.14
29197;BME280;62796;42.654;23.316;2023-02-20T09:51:27;95203.88;;;16.23;26.02
29197;BME280;62796;42.654;23.316;2023-02-20T09:54:02;95198.28;;;16.23;25.34
29197;BME280;62796;42.654;23.316;2023-02-20T09:56:38;95208.00;;;16.61;25.28
29197;BME280;62796;42.654;23.316;2023-02-20T09:59:15;95209.25;;;16.65;25.31
29197;BME280;62796;42.654;23.316;2023-02-20T10:02:02;95206.72;;;16.62;24.05
29197;BME280;62796;42.654;23.316;2023-02-20T10:04:47;95218.84;;;16.31;24.05
29197;BME280;62796;42.654;23.316;2023-02-20T10:07:23;95208.97;;;16.30;24.24
29197;BME280;62796;42.654;23.316;2023-02-20T10:09:49;95210.19;;;16.01;24.26
29197;BME280;62796;42.654;23.316;2023-02-20T10:15:05;95204.91;;;16.42;23.47
29197;BME280;62796;42.654;23.316;2023-02-20T10:20:40;95196.28;;;16.51;23.03
29197;BME280;62796;42.654;23.316;2023-02-20T10:26:09;95186.88;;;16.65;22.64
29197;BME280;62796;42.654;23.316;2023-02-20T10:28:36;95190.69;;;16.68;22.11
29197;BME280;62796;42.654;23.316;2023-02-20T10:33:57;95162.47;;;16.60;21.75
29197;BME280;62796;42.654;23.316;2023-02-20T10:36:27;95169.06;;;16.79;21.83
29197;BME280;62796;42.654;23.316;2023-02-20T10:39:00;95170.56;;;16.91;21.38
29197;BME280;62796;42.654;23.316;2023-02-20T10:41:53;95177.44;;;16.90;21.73
29197;BME280;62796;42.654;23.316;2023-02-20T10:47:22;95179.63;;;17.31;21.28
29197;BME280;62796;42.654;23.316;2023-02-20T10:49:59;95168.19;;;17.17;20.85
29197;BME280;62796;42.654;23.316;2023-02-20T10:52:34;95181.91;;;17.32;21.03
29197;BME280;62796;42.654;23.316;2023-02-20T10:58:00;95151.50;;;16.90;21.88
29197;BME280;62796;42.654;23.316;2023-02-20T11:00:26;95155.78;;;17.07;21.86
29197;BME280;62796;42.654;23.316;2023-02-20T11:02:57;95144.56;;;17.13;22.07
29197;BME280;62796;42.654;23.316;2023-02-20T11:05:27;95151.69;;;17.14;22.29
29197;BME280;62796;42.654;23.316;2023-02-20T11:07:55;95149.09;;;17.22;22.46
29197;BME280;62796;42.654;23.316;2023-02-20T11:10:20;95128.47;;;17.25;22.41
29197;BME280;62796;42.654;23.316;2023-02-20T11:12:50;95127.59;;;17.52;22.13
29197;BME280;62796;42.654;23.316;2023-02-20T11:15:19;95128.59;;;17.60;21.99
29197;BME280;62796;42.654;23.316;2023-02-20T11:17:48;95120.47;;;17.51;21.73
29197;BME280;62796;42.654;23.316;2023-02-20T11:22:57;95120.22;;;17.49;22.22
29197;BME280;62796;42.654;23.316;2023-02-20T11:25:31;95119.50;;;17.43;22.57
29197;BME280;62796;42.654;23.316;2023-02-20T11:28:20;95111.31;;;17.56;22.45
29197;BME280;62796;42.654;23.316;2023-02-20T11:30:49;95117.41;;;17.60;22.26
29197;BME280;62796;42.654;23.316;2023-02-20T11:33:24;95110.28;;;17.59;22.26
29197;BME280;62796;42.654;23.316;2023-02-20T11:36:09;95109.19;;;17.73;22.22
29197;BME280;62796;42.654;23.316;2023-02-20T11:38:36;95097.41;;;17.80;21.93
29197;BME280;62796;42.654;23.316;2023-02-20T11:43:45;95125.84;;;17.95;22.12
29197;BME280;62796;42.654;23.316;2023-02-20T11:46:16;95123.34;;;17.34;22.41
29197;BME280;62796;42.654;23.316;2023-02-20T11:51:46;95122.31;;;17.89;21.87
29197;BME280;62796;42.654;23.316;2023-02-20T11:54:19;95130.16;;;17.96;22.08
29197;BME280;62796;42.654;23.316;2023-02-20T12:04:43;95114.38;;;17.93;21.69
29197;BME280;62796;42.654;23.316;2023-02-20T12:07:25;95112.19;;;18.46;21.08
29197;BME280;62796;42.654;23.316;2023-02-20T12:09:55;95121.31;;;18.57;20.73
29197;BME280;62796;42.654;23.316;2023-02-20T12:12:22;95105.47;;;18.60;20.33
29197;BME280;62796;42.654;23.316;2023-02-20T12:14:51;95112.88;;;18.57;20.34
29197;BME280;62796;42.654;23.316;2023-02-20T12:17:58;95101.47;;;19.22;19.91
29197;BME280;62796;42.654;23.316;2023-02-20T12:20:25;95110.31;;;19.51;19.16
29197;BME280;62796;42.654;23.316;2023-02-20T12:28:40;95131.69;;;19.78;18.75
29197;BME280;62796;42.654;23.316;2023-02-20T12:31:41;95133.13;;;19.66;19.01
29197;BME280;62796;42.654;23.316;2023-02-20T12:37:08;95126.22;;;19.85;19.09
29197;BME280;62796;42.654;23.316;2023-02-20T12:46:02;95129.16;;;20.75;18.20
29197;BME280;62796;42.654;23.316;2023-02-20T12:48:42;95104.25;;;20.34;18.52
29197;BME280;62796;42.654;23.316;2023-02-20T12:51:22;95122.03;;;19.92;19.08
29197;BME280;62796;42.654;23.316;2023-02-20T12:57:25;95104.97;;;20.54;18.66
29197;BME280;62796;42.654;23.316;2023-02-20T13:05:05;95092.56;;;21.54;17.44
29197;BME280;62796;42.654;23.316;2023-02-20T13:07:50;95113.84;;;21.16;17.60
29197;BME280;62796;42.654;23.316;2023-02-20T13:10:21;95118.91;;;21.57;17.60
29197;BME280;62796;42.654;23.316;2023-02-20T13:12:51;95126.09;;;21.31;17.70
29197;BME280;62796;42.654;23.316;2023-02-20T13:18:35;95131.38;;;21.61;17.35
29197;BME280;62796;42.654;23.316;2023-02-20T13:21:10;95127.66;;;21.92;17.15
29197;BME280;62796;42.654;23.316;2023-02-20T13:23:36;95118.38;;;22.05;16.78
29197;BME280;62796;42.654;23.316;2023-02-20T13:28:48;95118.09;;;22.50;15.98
29197;BME280;62796;42.654;23.316;2023-02-20T13:31:22;95114.72;;;21.37;16.99
29197;BME280;62796;42.654;23.316;2023-02-20T13:36:41;95124.69;;;20.03;19.16
29197;BME280;62796;42.654;23.316;2023-02-20T13:44:42;95132.56;;;20.23;18.77
29197;BME280;62796;42.654;23.316;2023-02-20T13:52:42;95118.09;;;18.72;20.52
29197;BME280;62796;42.654;23.316;2023-02-20T13:57:42;95129.44;;;17.38;22.79
29197;BME280;62796;42.654;23.316;2023-02-20T14:02:47;95122.28;;;16.74;24.26
29197;BME280;62796;42.654;23.316;2023-02-20T14:05:25;95131.03;;;17.28;23.50
29197;BME280;62796;42.654;23.316;2023-02-20T14:07:51;95127.84;;;17.59;23.30
29197;BME280;62796;42.654;23.316;2023-02-20T14:13:09;95135.47;;;19.19;21.17
29197;BME280;62796;42.654;23.316;2023-02-20T14:15:52;95140.97;;;19.92;20.56
29197;BME280;62796;42.654;23.316;2023-02-20T14:18:23;95142.78;;;21.29;18.74
29197;BME280;62796;42.654;23.316;2023-02-20T14:21:14;95138.28;;;22.33;17.60
29197;BME280;62796;42.654;23.316;2023-02-20T14:23:40;95147.66;;;21.55;18.12
29197;BME280;62796;42.654;23.316;2023-02-20T14:26:30;95152.16;;;20.48;19.45
29197;BME280;62796;42.654;23.316;2023-02-20T14:28:57;95145.38;;;20.37;19.64
29197;BME280;62796;42.654;23.316;2023-02-20T14:31:24;95159.16;;;19.66;20.46
29197;BME280;62796;42.654;23.316;2023-02-20T14:33:55;95154.41;;;18.89;21.61
29197;BME280;62796;42.654;23.316;2023-02-20T14:41:37;95165.25;;;16.77;24.84
29197;BME280;62796;42.654;23.316;2023-02-20T14:44:04;95158.28;;;17.17;24.52
29197;BME280;62796;42.654;23.316;2023-02-20T14:46:35;95164.31;;;17.43;23.93
29197;BME280;62796;42.654;23.316;2023-02-20T14:49:05;95162.34;;;17.84;23.43
29197;BME280;62796;42.654;23.316;2023-02-20T14:51:31;95158.59;;;18.76;22.03
29197;BME280;62796;42.654;23.316;2023-02-20T14:56:37;95159.75;;;18.62;21.97
29197;BME280;62796;42.654;23.316;2023-02-20T15:01:48;95179.97;;;19.09;21.75
29197;BME280;62796;42.654;23.316;2023-02-20T15:04:17;95183.38;;;18.43;22.48
29197;BME280;62796;42.654;23.316;2023-02-20T15:06:45;95188.03;;;17.94;23.03
29197;BME280;62796;42.654;23.316;2023-02-20T15:09:12;95183.59;;;17.63;23.80
29197;BME280;62796;42.654;23.316;2023-02-20T15:14:21;95173.91;;;16.51;25.51
29197;BME280;62796;42.654;23.316;2023-02-20T15:16:47;95173.66;;;16.16;26.08